sensor_id;sensor_type;location;lat;lon;timestamp;temperature;humidity
74101;DHT22;62462;52.530;21.682;2022-09-20T00:02:17;11.80;84.60
74101;DHT22;62462;52.530;21.682;2022-09-20T00:04:43;11.70;84.70
74101;DHT22;62462;52.530;21.682;2022-09-20T00:07:08;11.70;84.70
74101;DHT22;62462;52.530;21.682;2022-09-20T00:09:34;11.80;84.90
74101;DHT22;62462;52.530;21.682;2022-09-20T00:12:00;11.80;84.80
74101;DHT22;62462;52.530;21.682;2022-09-20T00:14:26;11.80;84.40
74101;DHT22;62462;52.530;21.682;2022-09-20T00:16:51;11.70;84.00
74101;DHT22;62462;52.530;21.682;2022-09-20T00:19:20;11.70;84.30
74101;DHT22;62462;52.530;21.682;2022-09-20T00:21:46;11.70;84.10
74101;DHT22;62462;52.530;21.682;2022-09-20T00:24:12;11.60;84.60
74101;DHT22;62462;52.530;21.682;2022-09-20T00:26:38;11.60;84.70
74101;DHT22;62462;52.530;21.682;2022-09-20T00:29:05;11.50;84.90
74101;DHT22;62462;52.530;21.682;2022-09-20T00:31:32;11.50;85.00
74101;DHT22;62462;52.530;21.682;2022-09-20T00:33:57;11.50;85.10
74101;DHT22;62462;52.530;21.682;2022-09-20T00:36:42;11.50;85.40
74101;DHT22;62462;52.530;21.682;2022-09-20T00:39:10;11.50;85.20
74101;DHT22;62462;52.530;21.682;2022-09-20T00:41:36;11.50;85.10
74101;DHT22;62462;52.530;21.682;2022-09-20T00:44:35;11.50;85.20
74101;DHT22;62462;52.530;21.682;2022-09-20T00:46:48;11.50;85.30
74101;DHT22;62462;52.530;21.682;2022-09-20T00:51:44;11.40;85.50
74101;DHT22;62462;52.530;21.682;2022-09-20T00:54:14;11.40;85.60
74101;DHT22;62462;52.530;21.682;2022-09-20T00:56:41;11.40;85.50
74101;DHT22;62462;52.530;21.682;2022-09-20T00:59:19;11.50;85.60
74101;DHT22;62462;52.530;21.682;2022-09-20T01:01:50;11.50;85.10
74101;DHT22;62462;52.530;21.682;2022-09-20T01:04:18;11.50;85.00
74101;DHT22;62462;52.530;21.682;2022-09-20T01:06:49;11.50;84.90
74101;DHT22;62462;52.530;21.682;2022-09-20T01:09:17;11.50;84.90
74101;DHT22;62462;52.530;21.682;2022-09-20T01:11:44;11.50;85.30
74101;DHT22;62462;52.530;21.682;2022-09-20T01:14:12;11.50;85.40
74101;DHT22;62462;52.530;21.682;2022-09-20T01:16:39;11.50;85.40
74101;DHT22;62462;52.530;21.682;2022-09-20T01:22:27;11.60;85.30
74101;DHT22;62462;52.530;21.682;2022-09-20T01:25:06;11.60;84.70
74101;DHT22;62462;52.530;21.682;2022-09-20T01:27:51;11.50;84.80
74101;DHT22;62462;52.530;21.682;2022-09-20T01:30:23;11.50;85.10
74101;DHT22;62462;52.530;21.682;2022-09-20T01:33:00;11.50;85.10
74101;DHT22;62462;52.530;21.682;2022-09-20T01:35:27;11.50;85.10
74101;DHT22;62462;52.530;21.682;2022-09-20T01:43:36;11.50;85.40
74101;DHT22;62462;52.530;21.682;2022-09-20T01:48:47;11.50;84.90
74101;DHT22;62462;52.530;21.682;2022-09-20T01:59:45;11.50;84.40
74101;DHT22;62462;52.530;21.682;2022-09-20T02:05:16;11.50;84.20
74101;DHT22;62462;52.530;21.682;2022-09-20T02:11:16;11.50;84.30
74101;DHT22;62462;52.530;21.682;2022-09-20T02:22:25;11.60;83.50
74101;DHT22;62462;52.530;21.682;2022-09-20T02:27:44;11.40;84.00
74101;DHT22;62462;52.530;21.682;2022-09-20T02:33:09;11.40;84.40
74101;DHT22;62462;52.530;21.682;2022-09-20T02:41:55;11.40;84.90
74101;DHT22;62462;52.530;21.682;2022-09-20T02:50:00;11.60;84.40
74101;DHT22;62462;52.530;21.682;2022-09-20T03:06:50;11.50;85.10
74101;DHT22;62462;52.530;21.682;2022-09-20T03:36:16;11.50;85.00
74101;DHT22;62462;52.530;21.682;2022-09-20T03:39:58;11.50;85.10
74101;DHT22;62462;52.530;21.682;2022-09-20T03:52:38;11.40;85.40
74101;DHT22;62462;52.530;21.682;2022-09-20T04:03:17;11.40;85.30
74101;DHT22;62462;52.530;21.682;2022-09-20T04:06:15;11.50;85.20
74101;DHT22;62462;52.530;21.682;2022-09-20T04:09:24;11.50;84.90
74101;DHT22;62462;52.530;21.682;2022-09-20T04:12:02;11.50;84.90
74101;DHT22;62462;52.530;21.682;2022-09-20T04:22:50;11.50;84.90
74101;DHT22;62462;52.530;21.682;2022-09-20T04:25:54;11.50;84.90
74101;DHT22;62462;52.530;21.682;2022-09-20T04:28:39;11.40;85.10
74101;DHT22;62462;52.530;21.682;2022-09-20T04:33:56;11.40;85.30
74101;DHT22;62462;52.530;21.682;2022-09-20T04:36:32;11.40;85.10
74101;DHT22;62462;52.530;21.682;2022-09-20T04:51:09;11.50;85.50
74101;DHT22;62462;52.530;21.682;2022-09-20T05:00:02;11.50;84.90
74101;DHT22;62462;52.530;21.682;2022-09-20T05:10:41;11.50;84.70
74101;DHT22;62462;52.530;21.682;2022-09-20T05:27:32;11.50;85.20
74101;DHT22;62462;52.530;21.682;2022-09-20T05:30:13;11.60;85.30
74101;DHT22;62462;52.530;21.682;2022-09-20T05:38:37;11.70;85.00
74101;DHT22;62462;52.530;21.682;2022-09-20T05:41:16;11.70;84.60
74101;DHT22;62462;52.530;21.682;2022-09-20T05:49:25;11.80;84.70
74101;DHT22;62462;52.530;21.682;2022-09-20T06:00:31;12.00;84.20
74101;DHT22;62462;52.530;21.682;2022-09-20T06:06:28;12.10;83.70
74101;DHT22;62462;52.530;21.682;2022-09-20T06:22:47;12.00;83.90
74101;DHT22;62462;52.530;21.682;2022-09-20T06:25:22;12.00;84.20
74101;DHT22;62462;52.530;21.682;2022-09-20T06:30:27;12.20;84.00
74101;DHT22;62462;52.530;21.682;2022-09-20T06:32:58;12.30;83.10
74101;DHT22;62462;52.530;21.682;2022-09-20T06:35:54;12.30;83.20
74101;DHT22;62462;52.530;21.682;2022-09-20T06:38:34;12.30;83.10
74101;DHT22;62462;52.530;21.682;2022-09-20T06:41:20;12.30;83.20
74101;DHT22;62462;52.530;21.682;2022-09-20T06:43:59;12.40;82.90
74101;DHT22;62462;52.530;21.682;2022-09-20T06:46:30;12.40;82.60
74101;DHT22;62462;52.530;21.682;2022-09-20T06:48:57;12.30;82.50
74101;DHT22;62462;52.530;21.682;2022-09-20T06:51:24;12.40;82.70
74101;DHT22;62462;52.530;21.682;2022-09-20T06:53:52;12.30;83.50
74101;DHT22;62462;52.530;21.682;2022-09-20T06:56:20;12.30;83.00
74101;DHT22;62462;52.530;21.682;2022-09-20T06:58:47;12.40;83.20
74101;DHT22;62462;52.530;21.682;2022-09-20T07:01:14;12.40;82.50
74101;DHT22;62462;52.530;21.682;2022-09-20T07:03:40;12.40;82.70
74101;DHT22;62462;52.530;21.682;2022-09-20T07:06:07;12.40;82.10
74101;DHT22;62462;52.530;21.682;2022-09-20T07:08:33;12.40;82.30
74101;DHT22;62462;52.530;21.682;2022-09-20T07:11:06;12.40;83.10
74101;DHT22;62462;52.530;21.682;2022-09-20T07:13:35;12.50;82.40
74101;DHT22;62462;52.530;21.682;2022-09-20T07:16:05;12.50;82.60
74101;DHT22;62462;52.530;21.682;2022-09-20T07:18:32;12.60;82.40
74101;DHT22;62462;52.530;21.682;2022-09-20T07:21:02;12.60;82.30
74101;DHT22;62462;52.530;21.682;2022-09-20T07:23:28;12.60;81.90
74101;DHT22;62462;52.530;21.682;2022-09-20T07:25:57;12.60;81.70
74101;DHT22;62462;52.530;21.682;2022-09-20T07:28:25;12.60;82.00
74101;DHT22;62462;52.530;21.682;2022-09-20T07:30:51;12.60;82.10
74101;DHT22;62462;52.530;21.682;2022-09-20T07:33:17;12.60;82.30
74101;DHT22;62462;52.530;21.682;2022-09-20T07:35:47;12.70;81.40
74101;DHT22;62462;52.530;21.682;2022-09-20T07:38:13;12.70;81.90
74101;DHT22;62462;52.530;21.682;2022-09-20T07:40:40;12.70;81.20
74101;DHT22;62462;52.530;21.682;2022-09-20T07:43:06;12.80;82.20
74101;DHT22;62462;52.530;21.682;2022-09-20T07:45:32;12.90;82.30
74101;DHT22;62462;52.530;21.682;2022-09-20T07:47:59;13.00;82.00
74101;DHT22;62462;52.530;21.682;2022-09-20T07:50:30;13.10;81.70
74101;DHT22;62462;52.530;21.682;2022-09-20T07:52:56;13.30;81.70
74101;DHT22;62462;52.530;21.682;2022-09-20T07:55:22;13.30;80.80
74101;DHT22;62462;52.530;21.682;2022-09-20T07:57:48;13.40;81.00
74101;DHT22;62462;52.530;21.682;2022-09-20T08:00:15;13.40;81.00
74101;DHT22;62462;52.530;21.682;2022-09-20T08:02:41;13.40;80.30
74101;DHT22;62462;52.530;21.682;2022-09-20T08:05:07;13.30;80.30
74101;DHT22;62462;52.530;21.682;2022-09-20T08:07:33;13.30;80.70
74101;DHT22;62462;52.530;21.682;2022-09-20T08:09:59;13.30;80.40
74101;DHT22;62462;52.530;21.682;2022-09-20T08:12:24;13.30;80.60
74101;DHT22;62462;52.530;21.682;2022-09-20T08:14:51;13.30;80.90
74101;DHT22;62462;52.530;21.682;2022-09-20T08:17:17;13.30;80.90
74101;DHT22;62462;52.530;21.682;2022-09-20T08:19:43;13.30;80.90
74101;DHT22;62462;52.530;21.682;2022-09-20T08:22:10;13.40;80.60
74101;DHT22;62462;52.530;21.682;2022-09-20T08:24:37;13.40;80.60
74101;DHT22;62462;52.530;21.682;2022-09-20T08:27:03;13.40;80.80
74101;DHT22;62462;52.530;21.682;2022-09-20T08:29:29;13.40;81.00
74101;DHT22;62462;52.530;21.682;2022-09-20T08:31:54;13.40;81.00
74101;DHT22;62462;52.530;21.682;2022-09-20T08:34:23;13.40;80.70
74101;DHT22;62462;52.530;21.682;2022-09-20T08:36:49;13.40;80.80
74101;DHT22;62462;52.530;21.682;2022-09-20T08:39:17;13.40;80.50
74101;DHT22;62462;52.530;21.682;2022-09-20T08:44:19;13.30;80.70
74101;DHT22;62462;52.530;21.682;2022-09-20T08:46:55;13.30;81.00
74101;DHT22;62462;52.530;21.682;2022-09-20T08:49:27;13.30;80.80
74101;DHT22;62462;52.530;21.682;2022-09-20T08:51:54;13.30;80.80
74101;DHT22;62462;52.530;21.682;2022-09-20T08:54:23;13.30;81.40
74101;DHT22;62462;52.530;21.682;2022-09-20T08:56:50;13.30;81.60
74101;DHT22;62462;52.530;21.682;2022-09-20T08:59:18;13.30;81.10
74101;DHT22;62462;52.530;21.682;2022-09-20T09:01:46;13.30;81.60
74101;DHT22;62462;52.530;21.682;2022-09-20T09:06:39;13.30;81.60
74101;DHT22;62462;52.530;21.682;2022-09-20T09:09:05;13.30;81.80
74101;DHT22;62462;52.530;21.682;2022-09-20T09:11:32;13.30;83.00
74101;DHT22;62462;52.530;21.682;2022-09-20T09:16:30;13.40;81.20
74101;DHT22;62462;52.530;21.682;2022-09-20T09:18:57;13.40;81.70
74101;DHT22;62462;52.530;21.682;2022-09-20T09:21:25;13.50;81.80
74101;DHT22;62462;52.530;21.682;2022-09-20T09:24:13;13.50;82.00
74101;DHT22;62462;52.530;21.682;2022-09-20T09:26:41;13.40;82.50
74101;DHT22;62462;52.530;21.682;2022-09-20T09:29:19;13.40;82.20
74101;DHT22;62462;52.530;21.682;2022-09-20T09:31:47;13.40;82.90
74101;DHT22;62462;52.530;21.682;2022-09-20T09:34:32;13.50;82.90
74101;DHT22;62462;52.530;21.682;2022-09-20T09:37:00;13.60;82.90
74101;DHT22;62462;52.530;21.682;2022-09-20T09:39:32;13.70;82.60
74101;DHT22;62462;52.530;21.682;2022-09-20T09:41:58;13.70;82.70
74101;DHT22;62462;52.530;21.682;2022-09-20T09:44:29;13.80;82.00
74101;DHT22;62462;52.530;21.682;2022-09-20T09:46:57;13.80;82.10
74101;DHT22;62462;52.530;21.682;2022-09-20T09:54:36;14.00;81.30
74101;DHT22;62462;52.530;21.682;2022-09-20T10:00:17;14.10;81.30
74101;DHT22;62462;52.530;21.682;2022-09-20T10:05:31;14.10;81.00
74101;DHT22;62462;52.530;21.682;2022-09-20T10:10:36;14.30;80.50
74101;DHT22;62462;52.530;21.682;2022-09-20T10:19:20;14.30;79.80
74101;DHT22;62462;52.530;21.682;2022-09-20T10:21:54;14.20;80.60
74101;DHT22;62462;52.530;21.682;2022-09-20T10:27:17;14.10;80.70
74101;DHT22;62462;52.530;21.682;2022-09-20T10:39:09;14.10;82.00
74101;DHT22;62462;52.530;21.682;2022-09-20T10:41:28;14.20;82.50
74101;DHT22;62462;52.530;21.682;2022-09-20T10:47:16;14.60;81.30
74101;DHT22;62462;52.530;21.682;2022-09-20T10:52:35;15.00;80.60
74101;DHT22;62462;52.530;21.682;2022-09-20T11:08:22;16.10;71.90
74101;DHT22;62462;52.530;21.682;2022-09-20T11:10:58;16.30;74.10
74101;DHT22;62462;52.530;21.682;2022-09-20T11:14:20;16.40;72.70
74101;DHT22;62462;52.530;21.682;2022-09-20T11:16:22;16.30;70.80
74101;DHT22;62462;52.530;21.682;2022-09-20T11:24:35;15.60;72.90
74101;DHT22;62462;52.530;21.682;2022-09-20T11:27:11;15.60;73.90
74101;DHT22;62462;52.530;21.682;2022-09-20T11:29:49;15.70;73.50
74101;DHT22;62462;52.530;21.682;2022-09-20T11:32:26;15.80;72.20
74101;DHT22;62462;52.530;21.682;2022-09-20T11:34:58;15.60;72.00
74101;DHT22;62462;52.530;21.682;2022-09-20T11:37:31;15.50;72.40
74101;DHT22;62462;52.530;21.682;2022-09-20T11:40:03;15.50;73.10
74101;DHT22;62462;52.530;21.682;2022-09-20T11:42:33;15.40;73.50
74101;DHT22;62462;52.530;21.682;2022-09-20T11:45:02;15.40;73.10
74101;DHT22;62462;52.530;21.682;2022-09-20T11:58:57;16.00;70.00
74101;DHT22;62462;52.530;21.682;2022-09-20T12:03:55;16.20;71.90
74101;DHT22;62462;52.530;21.682;2022-09-20T12:06:32;16.40;70.30
74101;DHT22;62462;52.530;21.682;2022-09-20T12:09:38;16.50;68.20
74101;DHT22;62462;52.530;21.682;2022-09-20T12:12:24;16.50;69.50
74101;DHT22;62462;52.530;21.682;2022-09-20T12:14:57;16.50;69.00
74101;DHT22;62462;52.530;21.682;2022-09-20T12:26:11;16.90;70.20
74101;DHT22;62462;52.530;21.682;2022-09-20T12:28:41;17.00;66.90
74101;DHT22;62462;52.530;21.682;2022-09-20T12:36:40;17.00;66.50
74101;DHT22;62462;52.530;21.682;2022-09-20T12:44:39;17.40;65.60
74101;DHT22;62462;52.530;21.682;2022-09-20T12:47:18;17.50;63.90
74101;DHT22;62462;52.530;21.682;2022-09-20T13:03:29;17.30;64.80
74101;DHT22;62462;52.530;21.682;2022-09-20T13:11:43;16.70;63.00
74101;DHT22;62462;52.530;21.682;2022-09-20T13:16:47;16.50;65.80
74101;DHT22;62462;52.530;21.682;2022-09-20T13:19:23;16.50;66.50
74101;DHT22;62462;52.530;21.682;2022-09-20T13:24:58;16.60;65.70
74101;DHT22;62462;52.530;21.682;2022-09-20T13:27:34;16.50;66.20
74101;DHT22;62462;52.530;21.682;2022-09-20T13:30:18;16.50;66.90
74101;DHT22;62462;52.530;21.682;2022-09-20T13:32:44;16.50;66.50
74101;DHT22;62462;52.530;21.682;2022-09-20T13:42:51;17.00;66.70
74101;DHT22;62462;52.530;21.682;2022-09-20T13:45:19;16.90;64.80
74101;DHT22;62462;52.530;21.682;2022-09-20T13:47:51;16.90;65.80
74101;DHT22;62462;52.530;21.682;2022-09-20T13:50:31;16.70;62.40
74101;DHT22;62462;52.530;21.682;2022-09-20T13:53:00;16.50;62.10
74101;DHT22;62462;52.530;21.682;2022-09-20T13:55:30;16.20;63.20
74101;DHT22;62462;52.530;21.682;2022-09-20T13:58:00;16.00;64.70
74101;DHT22;62462;52.530;21.682;2022-09-20T14:00:28;15.80;66.00
74101;DHT22;62462;52.530;21.682;2022-09-20T14:02:56;15.60;67.20
74101;DHT22;62462;52.530;21.682;2022-09-20T14:05:29;15.40;68.30
74101;DHT22;62462;52.530;21.682;2022-09-20T14:07:56;15.30;69.30
74101;DHT22;62462;52.530;21.682;2022-09-20T14:10:31;15.20;70.10
74101;DHT22;62462;52.530;21.682;2022-09-20T14:13:02;15.20;70.80
74101;DHT22;62462;52.530;21.682;2022-09-20T14:15:34;15.10;71.10
74101;DHT22;62462;52.530;21.682;2022-09-20T14:18:01;15.10;71.50
74101;DHT22;62462;52.530;21.682;2022-09-20T14:20:29;15.00;71.70
74101;DHT22;62462;52.530;21.682;2022-09-20T14:22:56;14.90;72.30
74101;DHT22;62462;52.530;21.682;2022-09-20T14:25:24;14.80;72.80
74101;DHT22;62462;52.530;21.682;2022-09-20T14:28:16;14.70;73.00
74101;DHT22;62462;52.530;21.682;2022-09-20T14:30:44;14.60;73.50
74101;DHT22;62462;52.530;21.682;2022-09-20T14:33:16;14.60;73.90
74101;DHT22;62462;52.530;21.682;2022-09-20T14:35:50;14.60;74.00
74101;DHT22;62462;52.530;21.682;2022-09-20T14:38:20;14.50;74.10
74101;DHT22;62462;52.530;21.682;2022-09-20T14:40:47;14.60;74.30
74101;DHT22;62462;52.530;21.682;2022-09-20T14:46:14;14.60;74.50
74101;DHT22;62462;52.530;21.682;2022-09-20T14:48:41;14.50;74.90
74101;DHT22;62462;52.530;21.682;2022-09-20T14:51:19;14.50;75.30
74101;DHT22;62462;52.530;21.682;2022-09-20T14:56:46;14.40;75.80
74101;DHT22;62462;52.530;21.682;2022-09-20T15:04:37;14.40;76.10
74101;DHT22;62462;52.530;21.682;2022-09-20T15:07:07;14.40;76.10
74101;DHT22;62462;52.530;21.682;2022-09-20T15:09:34;14.50;76.10
74101;DHT22;62462;52.530;21.682;2022-09-20T15:14:29;14.60;76.00
74101;DHT22;62462;52.530;21.682;2022-09-20T15:16:56;14.50;76.10
74101;DHT22;62462;52.530;21.682;2022-09-20T15:19:23;14.60;76.20
74101;DHT22;62462;52.530;21.682;2022-09-20T15:21:48;14.60;76.00
74101;DHT22;62462;52.530;21.682;2022-09-20T15:24:14;14.50;76.10
74101;DHT22;62462;52.530;21.682;2022-09-20T15:26:52;14.50;76.20
74101;DHT22;62462;52.530;21.682;2022-09-20T15:29:18;14.50;76.30
74101;DHT22;62462;52.530;21.682;2022-09-20T15:31:49;14.40;76.30
74101;DHT22;62462;52.530;21.682;2022-09-20T15:34:14;14.50;76.30
74101;DHT22;62462;52.530;21.682;2022-09-20T15:36:42;14.50;76.10
74101;DHT22;62462;52.530;21.682;2022-09-20T15:39:08;14.50;76.00
74101;DHT22;62462;52.530;21.682;2022-09-20T15:41:37;14.50;75.90
74101;DHT22;62462;52.530;21.682;2022-09-20T15:44:04;14.50;76.50
74101;DHT22;62462;52.530;21.682;2022-09-20T15:46:32;14.30;75.60
74101;DHT22;62462;52.530;21.682;2022-09-20T15:48:59;14.30;76.00
74101;DHT22;62462;52.530;21.682;2022-09-20T15:51:33;14.20;76.10
74101;DHT22;62462;52.530;21.682;2022-09-20T15:54:02;14.00;76.40
74101;DHT22;62462;52.530;21.682;2022-09-20T15:56:43;14.00;76.80
74101;DHT22;62462;52.530;21.682;2022-09-20T15:59:10;13.90;77.30
74101;DHT22;62462;52.530;21.682;2022-09-20T16:01:43;13.90;77.30
74101;DHT22;62462;52.530;21.682;2022-09-20T16:04:17;13.80;77.30
74101;DHT22;62462;52.530;21.682;2022-09-20T16:06:50;13.90;77.30
74101;DHT22;62462;52.530;21.682;2022-09-20T16:09:16;14.00;77.00
74101;DHT22;62462;52.530;21.682;2022-09-20T16:11:42;14.00;76.80
74101;DHT22;62462;52.530;21.682;2022-09-20T16:14:08;14.10;76.60
74101;DHT22;62462;52.530;21.682;2022-09-20T16:16:34;14.10;76.70
74101;DHT22;62462;52.530;21.682;2022-09-20T16:19:00;14.10;76.40
74101;DHT22;62462;52.530;21.682;2022-09-20T16:21:45;14.10;76.20
74101;DHT22;62462;52.530;21.682;2022-09-20T16:24:15;14.10;76.10
74101;DHT22;62462;52.530;21.682;2022-09-20T16:26:41;14.10;75.80
74101;DHT22;62462;52.530;21.682;2022-09-20T16:29:08;14.10;75.80
74101;DHT22;62462;52.530;21.682;2022-09-20T16:31:42;14.10;75.70
74101;DHT22;62462;52.530;21.682;2022-09-20T16:36:39;14.10;75.40
74101;DHT22;62462;52.530;21.682;2022-09-20T16:39:09;14.10;75.40
74101;DHT22;62462;52.530;21.682;2022-09-20T16:41:36;14.00;75.40
74101;DHT22;62462;52.530;21.682;2022-09-20T16:44:03;13.90;75.50
74101;DHT22;62462;52.530;21.682;2022-09-20T16:46:30;13.90;75.70
74101;DHT22;62462;52.530;21.682;2022-09-20T16:48:57;13.80;75.80
74101;DHT22;62462;52.530;21.682;2022-09-20T16:51:29;13.70;76.20
74101;DHT22;62462;52.530;21.682;2022-09-20T16:53:56;13.60;76.40
74101;DHT22;62462;52.530;21.682;2022-09-20T16:56:27;13.70;76.10
74101;DHT22;62462;52.530;21.682;2022-09-20T16:58:54;13.70;75.60
74101;DHT22;62462;52.530;21.682;2022-09-20T17:01:21;13.70;75.10
74101;DHT22;62462;52.530;21.682;2022-09-20T17:03:47;13.60;75.00
74101;DHT22;62462;52.530;21.682;2022-09-20T17:06:14;13.60;74.90
74101;DHT22;62462;52.530;21.682;2022-09-20T17:08:41;13.60;74.30
74101;DHT22;62462;52.530;21.682;2022-09-20T17:11:12;13.50;74.20
74101;DHT22;62462;52.530;21.682;2022-09-20T17:13:40;13.50;74.30
74101;DHT22;62462;52.530;21.682;2022-09-20T17:16:15;13.50;74.20
74101;DHT22;62462;52.530;21.682;2022-09-20T17:18:41;13.30;74.40
74101;DHT22;62462;52.530;21.682;2022-09-20T17:21:15;13.20;74.40
74101;DHT22;62462;52.530;21.682;2022-09-20T17:23:45;13.20;74.30
74101;DHT22;62462;52.530;21.682;2022-09-20T17:26:11;13.10;73.80
74101;DHT22;62462;52.530;21.682;2022-09-20T17:28:42;13.10;73.60
74101;DHT22;62462;52.530;21.682;2022-09-20T17:31:13;13.00;73.60
74101;DHT22;62462;52.530;21.682;2022-09-20T17:33:40;13.00;73.80
74101;DHT22;62462;52.530;21.682;2022-09-20T17:36:07;13.00;73.90
74101;DHT22;62462;52.530;21.682;2022-09-20T17:38:34;12.90;73.80
74101;DHT22;62462;52.530;21.682;2022-09-20T17:41:13;12.80;74.00
74101;DHT22;62462;52.530;21.682;2022-09-20T17:43:39;12.70;73.30
74101;DHT22;62462;52.530;21.682;2022-09-20T17:46:17;12.70;73.30
74101;DHT22;62462;52.530;21.682;2022-09-20T17:48:52;12.70;73.30
74101;DHT22;62462;52.530;21.682;2022-09-20T17:51:19;12.60;73.20
74101;DHT22;62462;52.530;21.682;2022-09-20T17:53:47;12.60;72.80
74101;DHT22;62462;52.530;21.682;2022-09-20T17:56:14;12.60;72.90
74101;DHT22;62462;52.530;21.682;2022-09-20T17:58:40;12.50;72.80
74101;DHT22;62462;52.530;21.682;2022-09-20T18:01:09;12.50;72.80
74101;DHT22;62462;52.530;21.682;2022-09-20T18:03:37;12.50;72.80
74101;DHT22;62462;52.530;21.682;2022-09-20T18:06:30;12.40;72.80
74101;DHT22;62462;52.530;21.682;2022-09-20T18:08:59;12.40;72.90
74101;DHT22;62462;52.530;21.682;2022-09-20T18:14:02;12.30;72.40
74101;DHT22;62462;52.530;21.682;2022-09-20T18:16:28;12.30;72.40
74101;DHT22;62462;52.530;21.682;2022-09-20T18:18:55;12.30;72.50
74101;DHT22;62462;52.530;21.682;2022-09-20T18:21:23;12.20;73.00
74101;DHT22;62462;52.530;21.682;2022-09-20T18:23:51;12.10;73.60
74101;DHT22;62462;52.530;21.682;2022-09-20T18:26:19;12.10;73.00
74101;DHT22;62462;52.530;21.682;2022-09-20T18:28:59;12.20;72.90
74101;DHT22;62462;52.530;21.682;2022-09-20T18:31:34;12.20;72.70
74101;DHT22;62462;52.530;21.682;2022-09-20T18:34:05;12.10;72.40
74101;DHT22;62462;52.530;21.682;2022-09-20T18:36:34;12.10;72.60
74101;DHT22;62462;52.530;21.682;2022-09-20T18:39:00;12.10;72.60
74101;DHT22;62462;52.530;21.682;2022-09-20T18:41:29;12.10;72.50
74101;DHT22;62462;52.530;21.682;2022-09-20T18:43:59;12.10;72.30
74101;DHT22;62462;52.530;21.682;2022-09-20T18:46:27;12.10;71.90
74101;DHT22;62462;52.530;21.682;2022-09-20T18:48:56;12.10;72.20
74101;DHT22;62462;52.530;21.682;2022-09-20T18:51:24;12.00;72.40
74101;DHT22;62462;52.530;21.682;2022-09-20T18:53:50;12.00;72.80
74101;DHT22;62462;52.530;21.682;2022-09-20T18:58:51;12.00;72.00
74101;DHT22;62462;52.530;21.682;2022-09-20T19:10:28;11.90;72.10
74101;DHT22;62462;52.530;21.682;2022-09-20T19:13:01;11.80;72.10
74101;DHT22;62462;52.530;21.682;2022-09-20T19:15:37;11.80;71.90
74101;DHT22;62462;52.530;21.682;2022-09-20T19:18:23;11.70;71.70
74101;DHT22;62462;52.530;21.682;2022-09-20T19:26:37;11.70;71.80
74101;DHT22;62462;52.530;21.682;2022-09-20T19:29:19;11.60;71.80
74101;DHT22;62462;52.530;21.682;2022-09-20T19:31:50;11.60;72.10
74101;DHT22;62462;52.530;21.682;2022-09-20T19:34:22;11.50;72.60
74101;DHT22;62462;52.530;21.682;2022-09-20T19:42:29;11.50;72.70
74101;DHT22;62462;52.530;21.682;2022-09-20T19:45:29;11.60;72.60
74101;DHT22;62462;52.530;21.682;2022-09-20T19:48:11;11.60;72.40
74101;DHT22;62462;52.530;21.682;2022-09-20T19:50:47;11.60;72.20
74101;DHT22;62462;52.530;21.682;2022-09-20T19:53:16;11.50;72.30
74101;DHT22;62462;52.530;21.682;2022-09-20T19:55:47;11.50;72.50
74101;DHT22;62462;52.530;21.682;2022-09-20T19:58:15;11.50;72.70
74101;DHT22;62462;52.530;21.682;2022-09-20T20:00:45;11.50;72.80
74101;DHT22;62462;52.530;21.682;2022-09-20T20:03:11;11.50;73.00
74101;DHT22;62462;52.530;21.682;2022-09-20T20:06:04;11.50;73.00
74101;DHT22;62462;52.530;21.682;2022-09-20T20:08:38;11.50;72.80
74101;DHT22;62462;52.530;21.682;2022-09-20T20:14:03;11.60;72.60
74101;DHT22;62462;52.530;21.682;2022-09-20T20:24:53;11.60;74.20
74101;DHT22;62462;52.530;21.682;2022-09-20T20:27:19;11.70;74.20
74101;DHT22;62462;52.530;21.682;2022-09-20T20:29:45;11.70;74.30
74101;DHT22;62462;52.530;21.682;2022-09-20T20:32:11;11.80;74.50
74101;DHT22;62462;52.530;21.682;2022-09-20T20:34:37;11.80;74.80
74101;DHT22;62462;52.530;21.682;2022-09-20T20:37:03;11.80;75.10
74101;DHT22;62462;52.530;21.682;2022-09-20T20:39:30;11.80;75.50
74101;DHT22;62462;52.530;21.682;2022-09-20T20:42:05;11.90;75.80
74101;DHT22;62462;52.530;21.682;2022-09-20T20:44:33;11.90;75.90
74101;DHT22;62462;52.530;21.682;2022-09-20T20:47:03;11.90;76.30
74101;DHT22;62462;52.530;21.682;2022-09-20T20:49:29;11.90;76.50
74101;DHT22;62462;52.530;21.682;2022-09-20T20:51:55;11.90;76.80
74101;DHT22;62462;52.530;21.682;2022-09-20T20:54:22;11.90;76.90
74101;DHT22;62462;52.530;21.682;2022-09-20T20:56:48;12.00;77.00
74101;DHT22;62462;52.530;21.682;2022-09-20T20:59:14;12.00;76.80
74101;DHT22;62462;52.530;21.682;2022-09-20T21:01:41;12.10;76.70
74101;DHT22;62462;52.530;21.682;2022-09-20T21:04:10;12.10;76.70
74101;DHT22;62462;52.530;21.682;2022-09-20T21:06:38;12.10;76.70
74101;DHT22;62462;52.530;21.682;2022-09-20T21:09:08;12.20;76.60
74101;DHT22;62462;52.530;21.682;2022-09-20T21:11:36;12.10;76.80
74101;DHT22;62462;52.530;21.682;2022-09-20T21:14:04;12.00;77.30
74101;DHT22;62462;52.530;21.682;2022-09-20T21:16:36;12.00;77.50
74101;DHT22;62462;52.530;21.682;2022-09-20T21:19:04;12.00;77.90
74101;DHT22;62462;52.530;21.682;2022-09-20T21:21:37;12.00;78.10
74101;DHT22;62462;52.530;21.682;2022-09-20T21:24:05;12.00;78.40
74101;DHT22;62462;52.530;21.682;2022-09-20T21:26:32;11.90;78.30
74101;DHT22;62462;52.530;21.682;2022-09-20T21:29:00;11.90;78.40
74101;DHT22;62462;52.530;21.682;2022-09-20T21:31:31;12.00;78.40
74101;DHT22;62462;52.530;21.682;2022-09-20T21:33:58;12.00;78.40
74101;DHT22;62462;52.530;21.682;2022-09-20T21:36:27;12.10;78.10
74101;DHT22;62462;52.530;21.682;2022-09-20T21:38:53;12.10;77.90
74101;DHT22;62462;52.530;21.682;2022-09-20T21:41:27;12.10;77.90
74101;DHT22;62462;52.530;21.682;2022-09-20T21:43:58;12.10;78.20
74101;DHT22;62462;52.530;21.682;2022-09-20T21:46:38;12.10;78.60
74101;DHT22;62462;52.530;21.682;2022-09-20T21:49:08;12.10;78.60
74101;DHT22;62462;52.530;21.682;2022-09-20T21:51:36;12.10;78.60
74101;DHT22;62462;52.530;21.682;2022-09-20T21:54:02;12.10;78.70
74101;DHT22;62462;52.530;21.682;2022-09-20T21:56:33;12.10;78.60
74101;DHT22;62462;52.530;21.682;2022-09-20T21:58:59;12.10;78.80
74101;DHT22;62462;52.530;21.682;2022-09-20T22:01:31;12.10;78.80
74101;DHT22;62462;52.530;21.682;2022-09-20T22:04:04;12.10;78.60
74101;DHT22;62462;52.530;21.682;2022-09-20T22:06:41;12.20;78.80
74101;DHT22;62462;52.530;21.682;2022-09-20T22:09:13;12.10;78.90